createdAt,value
2019-06-15T00:00:32.819Z,101641.73
2019-06-15T00:03:02.407Z,101647.72
2019-06-15T00:05:31.971Z,101643.68
2019-06-15T00:08:04.642Z,101641.59
2019-06-15T00:10:32.968Z,101649.16
2019-06-15T00:13:02.881Z,101642.81
2019-06-15T00:15:32.401Z,101645.63
2019-06-15T00:18:01.932Z,101645.63
2019-06-15T00:20:31.438Z,101642.08
2019-06-15T00:23:00.901Z,101643.03
2019-06-15T00:25:30.410Z,101646.20
2019-06-15T00:27:59.863Z,101651.50
2019-06-15T00:30:29.351Z,101647.20
2019-06-15T00:32:58.922Z,101643.16
2019-06-15T00:35:28.384Z,101637.78
2019-06-15T00:37:58.227Z,101637.88
2019-06-15T00:40:27.694Z,101635.70
2019-06-15T00:42:57.260Z,101636.52
2019-06-15T00:45:26.719Z,101635.31
2019-06-15T00:47:56.278Z,101633.96
2019-06-15T00:50:25.784Z,101625.02
2019-06-15T00:52:55.289Z,101619.16
2019-06-15T00:55:24.777Z,101613.39
2019-06-15T00:57:54.309Z,101613.39
2019-06-15T01:00:23.924Z,101618.90
2019-06-15T01:02:53.405Z,101611.78
2019-06-15T01:05:22.972Z,101618.90
2019-06-15T01:07:52.478Z,101616.69
2019-06-15T01:10:22.282Z,101610.92
2019-06-15T01:12:51.853Z,101611.43
2019-06-15T01:15:21.571Z,101608.74
2019-06-15T01:17:51.045Z,101610.09
2019-06-15T01:20:20.918Z,101619.12
2019-06-15T01:22:50.415Z,101620.08
2019-06-15T01:25:20.026Z,101614.70
2019-06-15T01:27:49.639Z,101620.59
2019-06-15T01:30:19.207Z,101620.69
2019-06-15T01:32:48.712Z,101620.69
2019-06-15T01:35:18.973Z,101618.47
2019-06-15T01:37:48.475Z,101617.13
2019-06-15T01:40:18.492Z,101623.50
2019-06-15T01:42:48.024Z,101620.42
2019-06-15T01:45:19.223Z,101623.59
2019-06-15T01:47:48.693Z,101623.59
2019-06-15T01:50:18.580Z,101626.80
2019-06-15T01:52:49.051Z,101625.45
2019-06-15T01:55:21.177Z,101627.28
2019-06-15T01:57:49.777Z,101619.69
2019-06-15T02:00:21.049Z,101622.38
2019-06-15T02:02:50.690Z,101624.68
2019-06-15T02:05:20.762Z,101619.81
2019-06-15T02:07:50.208Z,101617.59
2019-06-15T02:10:20.327Z,101612.70
2019-06-15T02:12:49.851Z,101616.25
2019-06-15T02:15:19.379Z,101615.87
2019-06-15T02:17:48.911Z,101617.21
2019-06-15T02:20:18.623Z,101615.00
2019-06-15T02:22:48.105Z,101620.89
2019-06-15T02:25:35.213Z,101611.95
2019-06-15T02:27:56.888Z,101613.78
2019-06-15T02:30:32.800Z,101614.26
2019-06-15T02:33:02.356Z,101609.36
2019-06-15T02:35:32.023Z,101607.05
2019-06-15T02:38:01.561Z,101614.17
2019-06-15T02:40:31.162Z,101618.56
2019-06-15T02:43:00.587Z,101613.08
2019-06-15T02:45:30.251Z,101611.13
2019-06-15T02:47:59.730Z,101614.08
2019-06-15T02:50:29.166Z,101608.48
2019-06-15T02:52:58.741Z,101611.78
2019-06-15T02:55:28.196Z,101608.01
2019-06-15T02:57:57.806Z,101611.34
2019-06-15T03:00:53.139Z,101611.98
2019-06-15T03:03:23.671Z,101605.52
2019-06-15T03:05:53.880Z,101612.86
2019-06-15T03:08:24.272Z,101610.42
2019-06-15T03:10:53.914Z,101605.30
2019-06-15T03:13:23.365Z,101611.45
2019-06-15T03:15:52.964Z,101615.61
2019-06-15T03:18:23.774Z,101627.51
2019-06-15T03:20:53.280Z,101619.20
2019-06-15T03:23:22.936Z,101619.94
2019-06-15T03:26:04.594Z,101618.38
2019-06-15T03:28:23.773Z,101620.88
2019-06-15T03:30:53.382Z,101623.30
2019-06-15T03:33:22.914Z,101616.34
2019-06-15T03:35:52.478Z,101615.64
2019-06-15T03:38:22.071Z,101614.55
2019-06-15T03:40:51.538Z,101606.85
2019-06-15T03:43:20.983Z,101601.59
2019-06-15T03:45:50.523Z,101598.28
2019-06-15T03:48:20.126Z,101600.27
2019-06-15T03:50:49.584Z,101603.59
2019-06-15T03:53:19.066Z,101605.54
2019-06-15T03:55:48.593Z,101609.83
2019-06-15T03:58:18.055Z,101609.73
2019-06-15T04:00:55.762Z,101617.94
2019-06-15T04:03:25.265Z,101616.84
2019-06-15T04:05:54.787Z,101616.61
2019-06-15T04:08:24.429Z,101615.52
2019-06-15T04:10:53.875Z,101614.80
2019-06-15T04:13:23.566Z,101619.09
2019-06-15T04:15:53.178Z,101623.73
2019-06-15T04:18:22.656Z,101626.20
2019-06-15T04:20:52.137Z,101623.27
2019-06-15T04:23:21.773Z,101621.69
2019-06-15T04:25:51.510Z,101616.92
2019-06-15T04:28:21.106Z,101618.55
2019-06-15T04:30:50.633Z,101620.63
2019-06-15T04:33:20.204Z,101615.84
2019-06-15T04:35:49.822Z,101613.39
2019-06-15T04:38:19.310Z,101609.97
2019-06-15T04:40:48.915Z,101608.88
2019-06-15T04:43:18.545Z,101612.30
2019-06-15T04:45:48.003Z,101608.25
2019-06-15T04:48:17.492Z,101602.52
2019-06-15T04:50:47.035Z,101605.20
2019-06-15T04:53:16.543Z,101600.05
2019-06-15T04:55:46.002Z,101588.89
2019-06-15T04:58:15.520Z,101584.98
2019-06-15T05:00:45.075Z,101584.73
2019-06-15T05:03:14.543Z,101587.91
2019-06-15T05:05:44.130Z,101585.45
2019-06-15T05:08:13.696Z,101586.93
2019-06-15T05:10:43.201Z,101595.98
2019-06-15T05:13:12.972Z,101592.94
2019-06-15T05:15:42.478Z,101592.08
2019-06-15T05:18:11.994Z,101587.55
2019-06-15T05:20:41.477Z,101585.92
2019-06-15T05:23:10.983Z,101585.41
2019-06-15T05:25:40.505Z,101576.97
2019-06-15T05:28:09.981Z,101587.38
2019-06-15T05:30:39.471Z,101585.64
2019-06-15T05:33:09.029Z,101586.64
2019-06-15T05:35:38.523Z,101588.47
2019-06-15T05:38:07.992Z,101588.61
2019-06-15T05:40:37.495Z,101540.80
2019-06-15T05:43:07.036Z,101584.56
2019-06-15T05:45:36.499Z,101584.66
2019-06-15T05:48:06.103Z,101587.74
2019-06-15T05:50:35.563Z,101577.44
2019-06-15T05:53:05.139Z,101577.44
2019-06-15T05:55:34.646Z,101574.12
2019-06-15T05:58:04.129Z,101570.81
2019-06-15T06:00:33.556Z,101573.28
2019-06-15T06:03:03.092Z,101567.33
2019-06-15T06:05:32.730Z,101567.58
2019-06-15T06:08:02.364Z,101568.41
2019-06-15T06:10:31.872Z,101579.95
2019-06-15T06:13:01.362Z,101569.52
2019-06-15T06:15:30.855Z,101560.46
2019-06-15T06:18:00.448Z,101562.16
2019-06-15T06:20:29.996Z,101560.22
2019-06-15T06:22:59.541Z,101563.75
2019-06-15T06:25:29.026Z,101567.55
2019-06-15T06:27:58.758Z,101571.75
2019-06-15T06:30:30.313Z,101574.55
2019-06-15T06:32:59.526Z,101574.06
2019-06-15T06:35:29.168Z,101575.91
2019-06-15T06:37:58.711Z,101583.13
2019-06-15T06:40:28.311Z,101586.80
2019-06-15T06:42:57.789Z,101588.15
2019-06-15T06:45:30.618Z,101584.59
2019-06-15T06:48:00.123Z,101596.23
2019-06-15T06:50:29.738Z,101591.81
2019-06-15T06:52:59.389Z,101598.20
2019-06-15T06:55:28.888Z,101593.43
2019-06-15T06:58:01.741Z,101598.96
2019-06-15T07:00:31.868Z,101604.46
2019-06-15T07:03:01.511Z,101600.51
2019-06-15T07:05:33.114Z,101607.02
2019-06-15T07:08:02.575Z,101611.19
2019-06-15T07:10:32.160Z,101606.89
2019-06-15T07:13:01.678Z,101610.66
2019-06-15T07:15:31.197Z,101606.37
2019-06-15T07:18:02.925Z,101604.77
2019-06-15T07:20:32.478Z,101601.44
2019-06-15T07:23:03.122Z,101605.24
2019-06-15T07:25:32.653Z,101600.56
2019-06-15T07:28:07.840Z,101609.42
2019-06-15T07:30:33.660Z,101607.78
2019-06-15T07:33:03.257Z,101611.23
2019-06-15T07:35:32.743Z,101606.08
2019-06-15T07:38:02.229Z,101602.26
2019-06-15T07:40:31.817Z,101603.95
2019-06-15T07:43:01.292Z,101606.41
2019-06-15T07:45:30.866Z,101599.65
2019-06-15T07:48:00.384Z,101597.67
2019-06-15T07:50:29.943Z,101605.17
2019-06-15T07:52:59.459Z,101605.52
2019-06-15T07:55:28.973Z,101604.06
2019-06-15T07:57:58.456Z,101595.84
2019-06-15T08:00:28.038Z,101599.89
2019-06-15T08:02:57.510Z,101595.22
2019-06-15T08:05:27.049Z,101606.89
2019-06-15T08:07:56.543Z,101601.86
2019-06-15T08:10:26.436Z,101599.50
2019-06-15T08:12:56.030Z,101596.69
2019-06-15T08:15:25.530Z,101593.50
2019-06-15T08:17:55.024Z,101593.84
2019-06-15T08:20:29.265Z,101589.67
2019-06-15T08:22:58.835Z,101587.80
2019-06-15T08:25:28.353Z,101586.83
2019-06-15T08:27:57.973Z,101587.70
2019-06-15T08:30:35.295Z,101588.04
2019-06-15T08:33:04.861Z,101587.55
2019-06-15T08:35:34.412Z,101578.09
2019-06-15T08:38:03.885Z,101574.42
2019-06-15T08:40:33.554Z,101572.58
2019-06-15T08:43:03.213Z,101572.92
2019-06-15T08:45:33.418Z,101568.38
2019-06-15T08:48:02.900Z,101568.75
2019-06-15T08:50:32.463Z,101566.91
2019-06-15T08:53:01.993Z,101566.54
2019-06-15T08:55:31.583Z,101564.22
2019-06-15T08:58:01.085Z,101561.51
2019-06-15T09:00:30.685Z,101563.20
2019-06-15T09:03:00.308Z,101555.09
2019-06-15T09:05:29.750Z,101560.50
2019-06-15T09:07:59.322Z,101558.66
2019-06-15T09:10:31.934Z,101559.15
2019-06-15T09:13:01.437Z,101556.45
2019-06-15T09:15:44.248Z,101558.17
2019-06-15T09:18:13.718Z,101555.96
2019-06-15T09:20:43.216Z,101549.69
2019-06-15T09:23:13.656Z,101551.91
2019-06-15T09:25:43.291Z,101550.55
2019-06-15T09:28:13.034Z,101540.23
2019-06-15T09:30:42.569Z,101539.75
2019-06-15T09:33:12.445Z,101548.72
2019-06-15T09:35:42.011Z,101555.96
2019-06-15T09:38:11.611Z,101550.06
2019-06-15T09:40:41.218Z,101555.96
2019-06-15T09:43:10.788Z,101557.80
2019-06-15T09:45:40.307Z,101559.15
2019-06-15T09:48:10.418Z,101558.29
2019-06-15T09:50:39.965Z,101563.20
2019-06-15T09:53:09.584Z,101552.39
2019-06-15T09:55:39.159Z,101551.42
2019-06-15T09:58:08.712Z,101553.26
2019-06-15T10:00:38.329Z,101559.87
2019-06-15T10:03:07.859Z,101551.77
2019-06-15T10:05:37.374Z,101550.41
2019-06-15T10:08:06.975Z,101561.59
2019-06-15T10:10:36.523Z,101553.00
2019-06-15T10:13:06.031Z,101554.34
2019-06-15T10:15:35.708Z,101553.48
2019-06-15T10:18:05.219Z,101553.48
2019-06-15T10:20:35.001Z,101549.44
2019-06-15T10:23:04.523Z,101549.44
2019-06-15T10:25:34.157Z,101548.08
2019-06-15T10:28:03.903Z,101545.37
2019-06-15T10:30:33.364Z,101542.30
2019-06-15T10:33:02.865Z,101539.59
2019-06-15T10:35:32.385Z,101541.09
2019-06-15T10:38:01.897Z,101537.05
2019-06-15T10:40:31.355Z,101536.18
2019-06-15T10:43:00.956Z,101538.87
2019-06-15T10:45:30.457Z,101535.84
2019-06-15T10:47:59.909Z,101532.27
2019-06-15T10:50:29.425Z,101544.92
2019-06-15T10:52:58.923Z,101537.79
2019-06-15T10:55:28.368Z,101541.02
2019-06-15T10:57:58.211Z,101539.66
2019-06-15T11:00:27.885Z,101534.11
2019-06-15T11:02:57.369Z,101538.55
2019-06-15T11:05:26.897Z,101532.99
2019-06-15T11:07:56.465Z,101534.34
2019-06-15T11:10:54.924Z,101518.98
2019-06-15T11:13:24.565Z,101527.81
2019-06-15T11:15:54.631Z,101515.16
2019-06-15T11:18:24.207Z,101516.03
2019-06-15T11:20:53.633Z,101514.16
2019-06-15T11:23:23.191Z,101512.80
2019-06-15T11:25:52.671Z,101514.04
2019-06-15T11:28:22.336Z,101507.77
2019-06-15T11:30:51.824Z,101501.02
2019-06-15T11:33:21.403Z,101493.77
2019-06-15T11:35:51.030Z,101495.98
2019-06-15T11:38:20.582Z,101493.39
2019-06-15T11:40:50.135Z,101494.63
2019-06-15T11:43:19.614Z,101488.36
2019-06-15T11:45:49.086Z,101487.02
2019-06-15T11:48:18.628Z,101480.97
2019-06-15T11:50:48.096Z,101482.33
2019-06-15T11:53:17.590Z,101473.23
2019-06-15T11:55:47.114Z,101472.72
2019-06-15T11:58:16.626Z,101462.77
2019-06-15T12:00:46.098Z,101459.58
2019-06-15T12:03:15.655Z,101451.47
2019-06-15T12:05:46.252Z,101445.95
2019-06-15T12:08:15.964Z,101458.94
2019-06-15T12:10:45.549Z,101453.53
2019-06-15T12:13:15.078Z,101453.41
2019-06-15T12:15:44.577Z,101459.16
2019-06-15T12:18:14.102Z,101460.40
2019-06-15T12:20:43.577Z,101455.86
2019-06-15T12:23:13.107Z,101453.16
2019-06-15T12:25:42.670Z,101453.49
2019-06-15T12:28:12.187Z,101450.78
2019-06-15T12:30:47.048Z,101455.55
2019-06-15T12:33:13.276Z,101455.22
2019-06-15T12:35:42.788Z,101450.67
2019-06-15T12:38:12.258Z,101447.82
2019-06-15T12:40:41.932Z,101445.98
2019-06-15T12:43:11.485Z,101444.85
2019-06-15T12:45:41.877Z,101442.15
2019-06-15T12:48:11.570Z,101444.85
2019-06-15T12:50:41.201Z,101444.36
2019-06-15T12:53:10.833Z,101446.05
2019-06-15T12:55:40.613Z,101437.45
2019-06-15T12:58:10.260Z,101454.91
2019-06-15T13:00:39.992Z,101455.73
2019-06-15T13:03:09.448Z,101448.00
2019-06-15T13:05:39.058Z,101451.56
2019-06-15T13:08:08.510Z,101458.66
2019-06-15T13:10:38.058Z,101459.41
2019-06-15T13:13:07.612Z,101466.17
2019-06-15T13:15:37.062Z,101466.88
2019-06-15T13:18:06.513Z,101462.34
2019-06-15T13:20:35.971Z,101456.06
2019-06-15T13:23:05.441Z,101457.27
2019-06-15T13:25:34.999Z,101456.41
2019-06-15T13:28:04.508Z,101454.45
2019-06-15T13:30:34.059Z,101451.22
2019-06-15T13:33:03.554Z,101454.78
2019-06-15T13:35:33.090Z,101443.97
2019-06-15T13:38:02.603Z,101443.85
2019-06-15T13:40:32.128Z,101434.39
2019-06-15T13:43:01.595Z,101429.84
2019-06-15T13:45:31.102Z,101424.92
2019-06-15T13:48:00.602Z,101423.08
2019-06-15T13:50:30.927Z,101422.93
2019-06-15T13:53:00.466Z,101425.63
2019-06-15T13:55:29.948Z,101421.58
2019-06-15T13:57:59.478Z,101421.58
2019-06-15T14:00:28.951Z,101417.38
2019-06-15T14:02:58.611Z,101409.26
2019-06-15T14:05:28.153Z,101409.63
2019-06-15T14:07:57.693Z,101415.44
2019-06-15T14:10:27.182Z,101408.16
2019-06-15T14:12:56.827Z,101409.51
2019-06-15T14:15:26.376Z,101409.88
2019-06-15T14:17:55.851Z,101400.91
2019-06-15T14:20:25.379Z,101399.06
2019-06-15T14:22:54.869Z,101405.34
2019-06-15T14:25:24.544Z,101400.79
2019-06-15T14:27:54.029Z,101402.14
2019-06-15T14:30:23.558Z,101399.44
2019-06-15T14:32:53.273Z,101393.50
2019-06-15T14:35:22.862Z,101392.67
2019-06-15T14:37:52.414Z,101396.21
2019-06-15T14:40:21.926Z,101386.25
2019-06-15T14:42:51.594Z,101384.91
2019-06-15T14:45:21.479Z,101384.41
2019-06-15T14:47:50.973Z,101379.86
2019-06-15T14:50:20.523Z,101386.13
2019-06-15T14:52:50.169Z,101377.50
2019-06-15T14:55:19.893Z,101370.24
2019-06-15T14:57:49.393Z,101368.41
2019-06-15T15:00:19.390Z,101356.38
2019-06-15T15:02:48.887Z,101361.64
2019-06-15T15:05:18.721Z,101362.63
2019-06-15T15:07:48.471Z,101358.07
2019-06-15T15:10:18.112Z,101357.22
2019-06-15T15:12:47.639Z,101356.23
2019-06-15T15:15:18.027Z,101349.09
2019-06-15T15:17:47.574Z,101344.70
2019-06-15T15:20:17.536Z,101351.80
2019-06-15T15:22:47.301Z,101355.03
2019-06-15T15:25:17.110Z,101343.36
2019-06-15T15:27:48.899Z,101344.70
2019-06-15T15:30:27.583Z,101339.30
2019-06-15T15:32:57.336Z,101346.06
2019-06-15T15:35:27.079Z,101342.98
2019-06-15T15:37:56.937Z,101338.59
2019-06-15T15:40:27.339Z,101339.08
2019-06-15T15:42:57.276Z,101344.83
2019-06-15T15:45:27.001Z,101336.38
2019-06-15T15:47:56.664Z,101333.67
2019-06-15T15:50:27.206Z,101332.32
2019-06-15T15:52:56.904Z,101337.23
2019-06-15T15:55:26.728Z,101335.52
2019-06-15T15:57:56.497Z,101335.52
2019-06-15T16:00:32.898Z,101338.22
2019-06-15T16:03:02.709Z,101344.61
2019-06-15T16:05:32.513Z,101344.27
2019-06-15T16:08:02.141Z,101341.56
2019-06-15T16:10:31.985Z,101349.19
2019-06-15T16:13:01.653Z,101348.78
2019-06-15T16:15:31.456Z,101356.44
2019-06-15T16:18:01.187Z,101344.88
2019-06-15T16:20:30.756Z,101346.72
2019-06-15T16:23:00.351Z,101348.94
2019-06-15T16:25:29.837Z,101342.17
2019-06-15T16:27:59.326Z,101338.24
2019-06-15T16:30:56.705Z,101339.59
2019-06-15T16:33:07.759Z,101336.03
2019-06-15T16:35:36.332Z,101334.68
2019-06-15T16:38:07.000Z,101332.98
2019-06-15T16:40:38.757Z,101332.13
2019-06-15T16:43:09.294Z,101330.78
2019-06-15T16:45:38.775Z,101324.14
2019-06-15T16:48:08.368Z,101323.64
2019-06-15T16:50:38.001Z,101317.90
2019-06-15T16:53:07.627Z,101317.90
2019-06-15T16:55:37.411Z,101318.39
2019-06-15T16:58:07.747Z,101318.39
2019-06-15T17:00:37.768Z,101318.02
2019-06-15T17:03:21.026Z,101316.67
2019-06-15T17:05:39.032Z,101313.97
2019-06-15T17:08:08.709Z,101315.31
2019-06-15T17:10:42.066Z,101318.02
2019-06-15T17:13:11.634Z,101313.62
2019-06-15T17:15:41.487Z,101306.88
2019-06-15T17:18:11.546Z,101309.57
2019-06-15T17:20:51.968Z,101309.20
2019-06-15T17:23:22.426Z,101310.06
2019-06-15T17:25:52.025Z,101306.98
2019-06-15T17:28:21.571Z,101314.12
2019-06-15T17:30:51.092Z,101312.39
2019-06-15T17:33:33.396Z,101311.53
2019-06-15T17:35:58.963Z,101315.59
2019-06-15T17:38:23.248Z,101308.83
2019-06-15T17:40:52.768Z,101311.53
2019-06-15T17:43:22.406Z,101303.09
2019-06-15T17:45:52.006Z,101313.41
2019-06-15T17:48:21.589Z,101309.36
2019-06-15T17:50:51.162Z,101308.61
2019-06-15T17:53:20.742Z,101309.14
2019-06-15T17:55:50.266Z,101305.08
2019-06-15T17:58:19.810Z,101292.55
2019-06-15T18:00:49.853Z,101301.86
2019-06-15T18:03:19.355Z,101299.30
2019-06-15T18:05:48.919Z,101298.81
2019-06-15T18:08:18.496Z,101293.04
2019-06-15T18:10:48.297Z,101297.95
2019-06-15T18:13:17.931Z,101295.25
2019-06-15T18:15:48.077Z,101298.45
2019-06-15T18:18:17.928Z,101291.34
2019-06-15T18:20:47.543Z,101286.44
2019-06-15T18:23:17.725Z,101286.92
2019-06-15T18:25:47.469Z,101284.70
2019-06-15T18:28:17.935Z,101281.52
2019-06-15T18:30:48.425Z,101288.39
2019-06-15T18:33:17.998Z,101290.61
2019-06-15T18:35:47.870Z,101289.75
2019-06-15T18:38:17.532Z,101285.36
2019-06-15T18:40:47.064Z,101284.87
2019-06-15T18:43:16.979Z,101287.20
2019-06-15T18:45:47.481Z,101289.91
2019-06-15T18:48:17.312Z,101289.04
2019-06-15T18:50:47.026Z,101283.78
2019-06-15T18:53:16.600Z,101287.34
2019-06-15T18:55:47.406Z,101291.41
2019-06-15T18:58:17.810Z,101286.00
2019-06-15T19:00:47.535Z,101284.28
2019-06-15T19:03:17.162Z,101281.73
2019-06-15T19:05:46.966Z,101284.43
2019-06-15T19:08:17.415Z,101288.48
2019-06-15T19:10:47.531Z,101286.77
2019-06-15T19:13:17.047Z,101289.95
2019-06-15T19:15:47.132Z,101286.91
2019-06-15T19:18:17.784Z,101282.00
2019-06-15T19:20:47.630Z,101281.14
2019-06-15T19:23:17.248Z,101271.83
2019-06-15T19:25:47.230Z,101275.02
2019-06-15T19:28:17.027Z,101273.80
2019-06-15T19:30:47.339Z,101271.09
2019-06-15T19:33:17.301Z,101268.05
2019-06-15T19:35:46.992Z,101267.19
2019-06-15T19:38:16.686Z,101262.77
2019-06-15T19:40:46.671Z,101266.11
2019-06-15T19:43:16.519Z,101261.57
2019-06-15T19:45:48.005Z,101259.84
2019-06-15T19:48:17.572Z,101259.51
2019-06-15T19:50:47.172Z,101258.28
2019-06-15T19:53:17.522Z,101256.22
2019-06-15T19:55:47.146Z,101257.72
2019-06-15T19:58:17.117Z,101262.75
2019-06-15T20:00:47.156Z,101261.41
2019-06-15T20:03:17.195Z,101260.20
2019-06-15T20:05:47.032Z,101258.48
2019-06-15T20:08:17.661Z,101260.48
2019-06-15T20:10:48.098Z,101260.48
2019-06-15T20:13:17.834Z,101259.73
2019-06-15T20:15:47.361Z,101255.84
2019-06-15T20:18:17.904Z,101252.42
2019-06-15T20:20:47.497Z,101249.35
2019-06-15T20:23:17.020Z,101253.89
2019-06-15T20:25:47.187Z,101257.12
2019-06-15T20:28:19.118Z,101252.33
2019-06-15T20:30:48.715Z,101256.53
2019-06-15T20:33:18.277Z,101256.16
2019-06-15T20:35:47.867Z,101252.10
2019-06-15T20:38:17.439Z,101259.50
2019-06-15T20:40:48.254Z,101260.85
2019-06-15T20:43:17.891Z,101258.75
2019-06-15T20:45:48.034Z,101252.64
2019-06-15T20:48:17.626Z,101251.78
2019-06-15T20:50:49.775Z,101247.36
2019-06-15T20:53:19.348Z,101248.38
2019-06-15T20:55:49.163Z,101249.84
2019-06-15T20:58:18.693Z,101253.89
2019-06-15T21:00:48.231Z,101249.13
2019-06-15T21:03:18.058Z,101257.72
2019-06-15T21:05:48.932Z,101259.22
2019-06-15T21:08:18.447Z,101261.06
2019-06-15T21:10:48.153Z,101265.27
2019-06-15T21:13:17.688Z,101269.31
2019-06-15T21:15:47.931Z,101270.67
2019-06-15T21:18:17.535Z,101275.55
2019-06-15T21:20:47.409Z,101272.36
2019-06-15T21:23:17.237Z,101275.43
2019-06-15T21:25:49.478Z,101272.73
2019-06-15T21:28:19.138Z,101265.48
2019-06-15T21:30:48.817Z,101269.02
2019-06-15T21:33:18.435Z,101268.04
2019-06-15T21:35:52.385Z,101268.90
2019-06-15T21:38:19.287Z,101271.59
2019-06-15T21:40:48.772Z,101275.50
2019-06-15T21:43:18.519Z,101268.41
2019-06-15T21:45:48.092Z,101270.09
2019-06-15T21:51:27.163Z,101270.09
2019-06-15T21:53:56.688Z,101275.50
2019-06-15T21:56:29.090Z,101277.86
2019-06-15T21:58:57.646Z,101270.73
2019-06-15T22:01:37.495Z,101273.93
2019-06-15T22:04:07.092Z,101278.84
2019-06-15T22:06:37.527Z,101279.33
2019-06-15T22:09:12.578Z,101276.63
2019-06-15T22:11:43.345Z,101275.77
2019-06-15T22:14:12.860Z,101283.05
2019-06-15T22:16:42.426Z,101284.02
2019-06-15T22:19:12.012Z,101282.67
2019-06-15T22:21:41.502Z,101282.30
2019-06-15T22:24:11.035Z,101281.81
2019-06-15T22:26:40.590Z,101286.88
2019-06-15T22:29:10.061Z,101280.13
2019-06-15T22:31:39.585Z,101275.20
2019-06-15T22:34:09.070Z,101272.14
2019-06-15T22:36:38.596Z,101273.63
2019-06-15T22:39:08.324Z,101277.20
2019-06-15T22:41:37.789Z,101275.97
2019-06-15T22:44:07.359Z,101277.20
2019-06-15T22:46:36.886Z,101278.66
2019-06-15T22:49:06.935Z,101279.16
2019-06-15T22:51:36.968Z,101271.54
2019-06-15T22:54:06.595Z,101270.19
2019-06-15T22:56:37.066Z,101273.91
2019-06-15T22:59:06.827Z,101271.31
2019-06-15T23:01:36.317Z,101267.27
2019-06-15T23:04:06.658Z,101264.34
2019-06-15T23:06:40.561Z,101267.56
2019-06-15T23:09:08.031Z,101265.47
2019-06-15T23:11:37.688Z,101265.47
2019-06-15T23:14:07.181Z,101269.18
2019-06-15T23:16:37.076Z,101264.42
2019-06-15T23:19:07.841Z,101264.91
2019-06-15T23:21:37.555Z,101269.94
2019-06-15T23:24:07.090Z,101275.00
2019-06-15T23:26:38.059Z,101270.08
2019-06-15T23:29:07.501Z,101267.02
2019-06-15T23:31:36.998Z,101266.30
2019-06-15T23:34:07.085Z,101263.72
2019-06-15T23:36:53.202Z,101264.73
2019-06-15T23:39:10.375Z,101262.52
2019-06-15T23:41:39.926Z,101255.39
2019-06-15T23:44:09.390Z,101261.42
2019-06-15T23:46:38.864Z,101257.87
2019-06-15T23:49:08.375Z,101258.88
2019-06-15T23:51:37.844Z,101258.02
2019-06-15T23:54:07.363Z,101258.16
2019-06-15T23:56:37.059Z,101250.55
2019-06-15T23:59:07.071Z,101256.06
